createdAt,value
2019-03-08T00:00:20.670Z,1.13
2019-03-08T00:02:53.099Z,0.60
2019-03-08T00:05:24.116Z,0.40
2019-03-08T00:07:54.906Z,0.50
2019-03-08T00:10:25.698Z,0.50
2019-03-08T00:12:56.574Z,0.83
2019-03-08T00:15:27.413Z,0.50
2019-03-08T00:17:58.294Z,0.50
2019-03-08T00:20:29.370Z,0.77
2019-03-08T00:23:00.201Z,0.67
2019-03-08T00:25:30.982Z,0.60
2019-03-08T00:28:01.857Z,0.70
2019-03-08T00:30:32.979Z,0.67
2019-03-08T00:33:03.778Z,0.70
2019-03-08T00:35:34.536Z,0.50
2019-03-08T00:38:05.414Z,0.70
2019-03-08T00:40:36.306Z,0.93
2019-03-08T00:43:07.191Z,0.60
2019-03-08T00:45:37.957Z,0.50
2019-03-08T00:48:08.698Z,0.50
2019-03-08T00:50:39.493Z,0.60
2019-03-08T00:53:10.129Z,0.70
2019-03-08T00:55:41.179Z,0.70
2019-03-08T00:58:12.321Z,0.80
2019-03-08T01:00:43.249Z,0.90
2019-03-08T01:03:14.128Z,0.67
2019-03-08T01:05:44.838Z,0.77
2019-03-08T01:08:16.051Z,1.40
2019-03-08T01:10:46.733Z,0.80
2019-03-08T01:13:17.521Z,1.00
2019-03-08T01:15:48.374Z,0.90
2019-03-08T01:18:19.237Z,0.77
2019-03-08T01:20:50.293Z,0.90
2019-03-08T01:23:21.157Z,1.10
2019-03-08T01:25:52.053Z,1.60
2019-03-08T01:28:22.926Z,1.30
2019-03-08T01:30:53.597Z,0.93
2019-03-08T01:33:24.370Z,1.10
2019-03-08T01:35:55.161Z,1.10
2019-03-08T01:38:25.936Z,1.00
2019-03-08T01:40:56.782Z,1.00
2019-03-08T01:43:27.708Z,0.70
2019-03-08T01:45:58.498Z,1.03
2019-03-08T01:48:29.278Z,0.90
2019-03-08T01:51:00.071Z,1.00
2019-03-08T01:53:30.638Z,1.00
2019-03-08T01:56:01.606Z,1.10
2019-03-08T01:58:32.381Z,0.80
2019-03-08T02:01:03.159Z,0.90
2019-03-08T02:03:34.008Z,0.60
2019-03-08T02:06:04.928Z,0.87
2019-03-08T02:08:36.799Z,0.70
2019-03-08T02:11:07.627Z,0.90
2019-03-08T02:13:38.513Z,0.87
2019-03-08T02:16:10.322Z,0.87
2019-03-08T02:18:41.162Z,0.70
2019-03-08T02:21:12.275Z,0.80
2019-03-08T02:23:43.134Z,0.93
2019-03-08T02:26:14.013Z,0.70
2019-03-08T02:28:44.705Z,1.10
2019-03-08T02:31:15.541Z,1.00
2019-03-08T02:33:46.446Z,1.00
2019-03-08T02:36:17.276Z,0.70
2019-03-08T02:38:48.060Z,0.70
2019-03-08T02:41:19.343Z,0.77
2019-03-08T02:43:50.034Z,0.93
2019-03-08T02:46:20.928Z,0.90
2019-03-08T02:48:51.766Z,0.93
2019-03-08T02:51:22.484Z,0.80
2019-03-08T02:53:53.133Z,0.63
2019-03-08T02:56:23.941Z,0.97
2019-03-08T02:58:54.702Z,1.30
2019-03-08T03:01:25.485Z,0.63
2019-03-08T03:03:56.274Z,0.80
2019-03-08T03:06:27.355Z,0.80
2019-03-08T03:08:58.154Z,0.70
2019-03-08T03:11:28.958Z,1.03
2019-03-08T03:13:59.731Z,0.60
2019-03-08T03:16:30.513Z,0.93
2019-03-08T03:19:01.302Z,1.47
2019-03-08T03:21:33.100Z,1.00
2019-03-08T03:24:04.198Z,0.60
2019-03-08T03:26:35.220Z,0.80
2019-03-08T03:29:06.006Z,0.80
2019-03-08T03:31:36.786Z,1.10
2019-03-08T03:34:07.473Z,0.70
2019-03-08T03:36:38.434Z,1.00
2019-03-08T03:39:09.109Z,0.50
2019-03-08T03:41:40.184Z,0.60
2019-03-08T03:44:11.133Z,0.87
2019-03-08T03:46:43.082Z,0.40
2019-03-08T03:49:14.129Z,0.60
2019-03-08T03:51:45.712Z,0.67
2019-03-08T03:54:17.501Z,0.60
2019-03-08T03:56:48.291Z,0.70
2019-03-08T03:59:19.186Z,0.60
2019-03-08T04:01:51.106Z,0.60
2019-03-08T04:04:21.905Z,0.70
2019-03-08T04:06:52.964Z,0.70
2019-03-08T04:09:23.752Z,1.03
2019-03-08T04:11:54.633Z,0.73
2019-03-08T04:14:25.578Z,0.70
2019-03-08T04:16:56.346Z,0.67
2019-03-08T04:19:27.030Z,1.30
2019-03-08T04:21:58.263Z,0.93
2019-03-08T04:24:29.084Z,1.10
2019-03-08T04:27:00.461Z,1.00
2019-03-08T04:29:31.299Z,0.73
2019-03-08T04:32:02.069Z,1.27
2019-03-08T04:34:32.836Z,0.90
2019-03-08T04:37:03.900Z,0.87
2019-03-08T04:39:35.740Z,0.70
2019-03-08T04:42:06.630Z,0.67
2019-03-08T04:44:37.405Z,0.97
2019-03-08T04:47:08.190Z,0.80
2019-03-08T04:49:38.908Z,0.60
2019-03-08T04:52:09.948Z,1.33
2019-03-08T04:54:40.734Z,1.33
2019-03-08T04:57:11.541Z,1.07
2019-03-08T04:59:42.561Z,1.13
2019-03-08T05:02:13.269Z,0.83
2019-03-08T05:04:44.465Z,1.20
2019-03-08T05:07:15.169Z,1.10
2019-03-08T05:09:46.027Z,0.97
2019-03-08T05:12:16.905Z,0.97
2019-03-08T05:14:47.683Z,1.00
2019-03-08T05:17:18.656Z,0.70
2019-03-08T05:19:49.352Z,1.00
2019-03-08T05:22:20.133Z,0.93
2019-03-08T05:24:50.819Z,1.30
2019-03-08T05:27:21.618Z,0.90
2019-03-08T05:29:52.593Z,0.87
2019-03-08T05:32:23.561Z,0.90
2019-03-08T05:34:54.373Z,0.83
2019-03-08T05:37:25.271Z,0.87
2019-03-08T05:39:56.147Z,0.80
2019-03-08T05:42:27.189Z,0.97
2019-03-08T05:44:57.918Z,0.70
2019-03-08T05:47:28.706Z,1.10
2019-03-08T05:49:59.458Z,0.93
2019-03-08T05:52:30.225Z,1.00
2019-03-08T05:55:01.425Z,0.80
2019-03-08T05:57:32.308Z,1.27
2019-03-08T06:00:03.213Z,0.80
2019-03-08T06:02:34.182Z,1.00
2019-03-08T06:05:05.529Z,0.60
2019-03-08T06:07:36.305Z,1.00
2019-03-08T06:10:27.862Z,0.80
2019-03-08T06:12:59.237Z,1.30
2019-03-08T06:15:30.043Z,0.90
2019-03-08T06:18:01.266Z,1.37
2019-03-08T06:20:32.140Z,0.70
2019-03-08T06:23:04.517Z,0.80
2019-03-08T06:25:35.582Z,0.80
2019-03-08T06:28:06.463Z,1.17
2019-03-08T06:30:37.445Z,0.67
2019-03-08T06:33:08.227Z,2.97
2019-03-08T06:35:38.683Z,1.10
2019-03-08T06:38:09.493Z,0.70
2019-03-08T06:40:40.258Z,0.70
2019-03-08T06:43:11.234Z,0.70
2019-03-08T06:45:42.126Z,1.03
2019-03-08T06:48:12.918Z,0.50
2019-03-08T06:50:43.732Z,0.70
2019-03-08T06:53:14.715Z,0.90
2019-03-08T06:55:45.498Z,1.30
2019-03-08T06:58:22.712Z,0.50
2019-03-08T07:01:12.391Z,1.03
2019-03-08T07:03:43.432Z,0.80
2019-03-08T07:06:14.310Z,0.67
2019-03-08T07:08:45.106Z,0.90
2019-03-08T07:11:15.888Z,0.73
2019-03-08T07:13:46.653Z,0.60
2019-03-08T07:16:17.554Z,1.13
2019-03-08T07:18:48.479Z,0.70
2019-03-08T07:21:29.575Z,1.50
2019-03-08T07:24:12.434Z,0.70
2019-03-08T07:27:00.877Z,0.90
2019-03-08T07:29:59.944Z,1.10
2019-03-08T07:32:54.774Z,0.90
2019-03-08T07:35:50.811Z,0.80
2019-03-08T07:38:55.934Z,0.50
2019-03-08T07:42:00.718Z,0.50
2019-03-08T07:44:56.026Z,1.17
2019-03-08T07:47:48.838Z,0.90
2019-03-08T07:50:53.934Z,1.00
2019-03-08T07:53:31.059Z,1.10
2019-03-08T07:56:11.217Z,0.70
2019-03-08T07:59:03.627Z,1.20
2019-03-08T08:01:41.794Z,1.00
2019-03-08T08:04:40.794Z,0.97
2019-03-08T08:07:21.358Z,1.50
2019-03-08T08:10:05.823Z,1.13
2019-03-08T08:13:04.159Z,1.80
2019-03-08T08:15:52.717Z,1.53
2019-03-08T08:18:45.838Z,1.40
2019-03-08T08:21:27.429Z,1.30
2019-03-08T08:24:26.258Z,1.00
2019-03-08T08:27:15.885Z,1.03
2019-03-08T08:30:20.970Z,0.93
2019-03-08T08:33:13.346Z,1.13
2019-03-08T08:35:59.836Z,0.80
2019-03-08T08:38:52.602Z,1.10
2019-03-08T08:41:32.963Z,1.23
2019-03-08T08:44:25.763Z,1.50
2019-03-08T08:47:21.377Z,0.90
2019-03-08T08:50:03.090Z,1.03
2019-03-08T08:52:49.825Z,1.33
2019-03-08T08:55:38.330Z,1.00
2019-03-08T08:58:28.374Z,1.10
2019-03-08T09:01:16.535Z,1.27
2019-03-08T09:04:06.403Z,0.90
2019-03-08T09:06:56.046Z,1.37
2019-03-08T09:09:56.589Z,1.07
2019-03-08T09:12:41.390Z,1.13
2019-03-08T09:15:25.451Z,1.60
2019-03-08T09:18:06.210Z,3.03
2019-03-08T09:20:55.669Z,2.13
2019-03-08T09:23:45.405Z,2.80
2019-03-08T09:26:47.558Z,2.10
2019-03-08T09:29:41.509Z,5.50
2019-03-08T09:32:24.467Z,1.90
2019-03-08T09:35:05.375Z,1.17
2019-03-08T09:37:56.961Z,1.37
2019-03-08T09:41:05.095Z,1.10
2019-03-08T09:43:53.725Z,1.17
2019-03-08T09:46:42.055Z,1.67
2019-03-08T09:49:20.997Z,0.80
2019-03-08T09:52:13.587Z,1.70
2019-03-08T09:55:06.372Z,1.37
2019-03-08T09:57:56.923Z,1.03
2019-03-08T10:00:51.503Z,1.13
2019-03-08T10:03:46.423Z,1.43
2019-03-08T10:06:45.790Z,0.93
2019-03-08T10:09:30.862Z,0.90
2019-03-08T10:12:20.079Z,1.17
2019-03-08T10:15:08.420Z,1.00
2019-03-08T10:18:00.921Z,1.20
2019-03-08T10:20:46.447Z,1.57
2019-03-08T10:23:38.808Z,1.67
2019-03-08T10:26:37.793Z,1.70
2019-03-08T10:29:26.040Z,2.47
2019-03-08T10:32:36.824Z,2.20
2019-03-08T10:35:23.925Z,0.83
2019-03-08T10:38:05.233Z,1.00
2019-03-08T10:41:12.906Z,1.33
2019-03-08T10:44:15.522Z,1.40
2019-03-08T10:47:03.759Z,1.33
2019-03-08T10:49:55.819Z,0.80
2019-03-08T10:52:53.770Z,0.83
2019-03-08T10:55:51.995Z,0.70
2019-03-08T10:58:41.559Z,0.77
2019-03-08T11:01:34.130Z,0.80
2019-03-08T11:04:42.095Z,1.10
2019-03-08T11:07:31.155Z,0.90
2019-03-08T11:10:36.011Z,1.10
2019-03-08T11:13:28.510Z,0.60
2019-03-08T11:16:17.031Z,1.03
2019-03-08T11:19:18.743Z,0.60
2019-03-08T11:22:07.405Z,1.07
2019-03-08T11:24:55.983Z,1.10
2019-03-08T11:27:48.511Z,1.23
2019-03-08T11:30:41.037Z,0.70
2019-03-08T11:33:46.047Z,1.07
2019-03-08T11:36:27.412Z,0.70
2019-03-08T11:39:21.236Z,0.70
2019-03-08T11:42:00.903Z,0.93
2019-03-08T11:44:57.819Z,0.60
2019-03-08T11:47:42.822Z,0.93
2019-03-08T11:50:26.635Z,1.13
2019-03-08T11:53:08.677Z,1.53
2019-03-08T11:55:44.377Z,0.90
2019-03-08T11:58:34.227Z,1.00
2019-03-08T12:01:33.887Z,0.93
2019-03-08T12:04:33.021Z,0.93
2019-03-08T12:07:25.424Z,0.40
2019-03-08T12:10:24.027Z,0.83
2019-03-08T12:13:01.908Z,1.00
2019-03-08T12:16:03.877Z,0.70
2019-03-08T12:18:56.341Z,1.00
2019-03-08T12:21:41.285Z,0.73
2019-03-08T12:24:42.871Z,0.87
2019-03-08T12:27:23.099Z,0.57
2019-03-08T12:30:04.414Z,0.50
2019-03-08T12:32:59.032Z,1.03
2019-03-08T12:35:52.792Z,0.90
2019-03-08T12:38:42.554Z,0.77
2019-03-08T12:41:35.570Z,1.00
2019-03-08T12:44:23.951Z,0.80
2019-03-08T12:47:22.819Z,0.80
2019-03-08T12:50:00.631Z,0.80
2019-03-08T12:52:48.315Z,0.70
2019-03-08T12:55:42.132Z,0.50
2019-03-08T12:58:44.575Z,0.93
2019-03-08T13:01:25.071Z,0.80
2019-03-08T13:04:24.478Z,1.13
2019-03-08T13:07:12.305Z,1.00
2019-03-08T13:09:48.407Z,0.80
2019-03-08T13:12:19.478Z,1.53
2019-03-08T13:14:50.430Z,1.10
2019-03-08T13:17:21.939Z,0.97
2019-03-08T13:19:52.743Z,0.90
2019-03-08T13:22:23.539Z,0.57
2019-03-08T13:24:54.352Z,0.87
2019-03-08T13:27:25.040Z,0.90
2019-03-08T13:29:56.163Z,0.60
2019-03-08T13:32:27.017Z,1.17
2019-03-08T13:34:57.688Z,1.03
2019-03-08T13:37:28.486Z,1.00
2019-03-08T13:39:59.167Z,0.73
2019-03-08T13:42:30.127Z,0.50
2019-03-08T13:45:00.826Z,1.20
2019-03-08T13:47:31.587Z,0.80
2019-03-08T13:50:03.348Z,0.90
2019-03-08T13:52:34.252Z,1.07
2019-03-08T13:55:05.539Z,1.07
2019-03-08T13:57:36.263Z,1.03
2019-03-08T14:00:08.875Z,0.80
2019-03-08T14:02:39.612Z,0.77
2019-03-08T14:05:10.937Z,0.80
2019-03-08T14:07:41.909Z,0.50
2019-03-08T14:10:14.552Z,0.70
2019-03-08T14:12:45.471Z,0.83
2019-03-08T14:15:16.421Z,1.03
2019-03-08T14:17:47.308Z,0.83
2019-03-08T14:20:19.239Z,0.87
2019-03-08T14:22:50.119Z,0.73
2019-03-08T14:25:21.000Z,0.80
2019-03-08T14:27:51.815Z,0.93
2019-03-08T14:30:24.296Z,0.70
2019-03-08T14:32:58.018Z,1.00
2019-03-08T14:35:29.652Z,1.43
2019-03-08T14:38:00.121Z,1.00
2019-03-08T14:40:48.844Z,0.70
2019-03-08T14:43:28.224Z,0.77
2019-03-08T14:46:03.857Z,1.10
2019-03-08T14:48:35.679Z,0.60
2019-03-08T14:51:09.432Z,1.23
2019-03-08T14:53:39.167Z,0.90
2019-03-08T14:56:10.038Z,0.70
2019-03-08T14:58:41.074Z,1.00
2019-03-08T15:01:12.090Z,0.60
2019-03-08T15:03:43.849Z,0.63
2019-03-08T15:06:15.299Z,0.90
2019-03-08T15:08:46.070Z,0.60
2019-03-08T15:11:16.741Z,0.60
2019-03-08T15:13:47.542Z,0.80
2019-03-08T15:16:18.215Z,0.57
2019-03-08T15:18:49.045Z,1.03
2019-03-08T15:21:19.875Z,0.50
2019-03-08T15:23:54.129Z,0.70
2019-03-08T15:26:23.287Z,0.90
2019-03-08T15:28:54.039Z,0.87
2019-03-08T15:31:24.832Z,1.00
2019-03-08T15:33:55.667Z,0.80
2019-03-08T15:36:26.398Z,0.67
2019-03-08T15:38:58.765Z,1.13
2019-03-08T15:41:29.644Z,1.60
2019-03-08T15:44:00.594Z,0.90
2019-03-08T15:46:31.516Z,0.70
2019-03-08T15:49:03.427Z,0.77
2019-03-08T15:51:34.467Z,0.73
2019-03-08T15:54:05.579Z,1.27
2019-03-08T15:56:36.563Z,0.73
2019-03-08T15:59:07.798Z,0.50
2019-03-08T16:01:38.643Z,1.00
2019-03-08T16:04:12.086Z,1.10
2019-03-08T16:06:43.847Z,1.37
2019-03-08T16:09:16.905Z,1.23
2019-03-08T16:11:47.660Z,0.90
2019-03-08T16:14:18.431Z,0.93
2019-03-08T16:16:49.227Z,0.80
2019-03-08T16:19:20.879Z,0.73
2019-03-08T16:21:52.441Z,1.03
2019-03-08T16:24:23.115Z,0.90
2019-03-08T16:26:54.081Z,1.00
2019-03-08T16:29:25.191Z,1.03
2019-03-08T16:32:18.658Z,1.00
2019-03-08T16:34:49.329Z,0.80
2019-03-08T16:37:30.921Z,1.20
2019-03-08T16:40:20.421Z,0.80
2019-03-08T16:43:25.384Z,1.10
2019-03-08T16:46:23.875Z,1.00
2019-03-08T16:49:14.770Z,1.40
2019-03-08T16:52:13.520Z,1.47
2019-03-08T16:55:01.792Z,1.23
2019-03-08T16:57:50.587Z,3.20
2019-03-08T17:00:41.139Z,2.00
2019-03-08T17:03:22.260Z,4.60
2019-03-08T17:06:13.891Z,4.33
2019-03-08T17:09:06.578Z,5.90
2019-03-08T17:11:55.235Z,3.67
2019-03-08T17:14:43.695Z,2.10
2019-03-08T17:17:32.131Z,1.80
2019-03-08T17:20:16.800Z,4.40
2019-03-08T17:23:01.209Z,7.10
2019-03-08T17:25:37.215Z,4.13
2019-03-08T17:28:19.971Z,3.17
2019-03-08T17:30:58.390Z,2.80
2019-03-08T17:33:51.687Z,1.73
2019-03-08T17:36:32.579Z,1.17
2019-03-08T17:39:11.256Z,1.60
2019-03-08T17:42:04.027Z,2.00
2019-03-08T17:44:52.595Z,1.97
2019-03-08T17:47:36.136Z,2.00
2019-03-08T17:50:26.539Z,3.10
2019-03-08T17:53:25.348Z,3.07
2019-03-08T17:56:27.408Z,3.33
2019-03-08T17:59:15.532Z,2.23
2019-03-08T18:02:03.958Z,3.37
2019-03-08T18:04:52.514Z,3.27
2019-03-08T18:07:35.495Z,2.73
2019-03-08T18:10:31.301Z,3.00
2019-03-08T18:13:20.966Z,2.17
2019-03-08T18:16:28.960Z,1.77
2019-03-08T18:19:27.752Z,2.10
2019-03-08T18:22:20.536Z,2.33
2019-03-08T18:25:10.194Z,2.27
2019-03-08T18:27:59.451Z,1.93
2019-03-08T18:30:44.823Z,1.63
2019-03-08T18:33:40.266Z,1.63
2019-03-08T18:36:26.129Z,1.13
2019-03-08T18:39:15.704Z,1.60
2019-03-08T18:41:55.857Z,1.80
2019-03-08T18:44:48.858Z,1.53
2019-03-08T18:47:38.606Z,1.47
2019-03-08T18:50:32.462Z,1.60
2019-03-08T18:53:34.115Z,1.70
2019-03-08T18:56:22.474Z,1.70
2019-03-08T18:59:32.970Z,1.70
2019-03-08T19:02:24.770Z,1.30
2019-03-08T19:05:23.514Z,1.40
2019-03-08T19:08:11.617Z,2.50
2019-03-08T19:11:10.750Z,1.77
2019-03-08T19:14:00.399Z,1.63
2019-03-08T19:17:08.695Z,1.53
2019-03-08T19:19:57.152Z,2.30
2019-03-08T19:22:36.614Z,2.07
2019-03-08T19:25:35.883Z,15.33
2019-03-08T19:28:30.685Z,5.40
2019-03-08T19:31:23.168Z,4.00
2019-03-08T19:34:10.342Z,4.87
2019-03-08T19:36:59.950Z,2.83
2019-03-08T19:39:48.515Z,5.20
2019-03-08T19:42:27.908Z,2.80
2019-03-08T19:45:16.403Z,4.33
2019-03-08T19:48:04.794Z,3.10
2019-03-08T19:51:12.510Z,4.60
2019-03-08T19:54:04.396Z,4.50
2019-03-08T19:57:03.126Z,5.63
2019-03-08T19:59:52.976Z,5.03
2019-03-08T20:02:46.578Z,3.23
2019-03-08T20:05:34.982Z,3.20
2019-03-08T20:08:30.339Z,3.03
2019-03-08T20:11:32.190Z,2.97
2019-03-08T20:14:20.446Z,2.60
2019-03-08T20:17:12.981Z,2.60
2019-03-08T20:19:51.304Z,3.27
2019-03-08T20:22:35.177Z,1.70
2019-03-08T20:25:13.610Z,1.67
2019-03-08T20:27:50.572Z,1.77
2019-03-08T20:30:46.561Z,1.87
2019-03-08T20:33:28.182Z,1.40
2019-03-08T20:36:07.800Z,1.53
2019-03-08T20:39:03.932Z,2.10
2019-03-08T20:41:55.242Z,2.50
2019-03-08T20:44:31.616Z,3.23
2019-03-08T20:47:11.736Z,1.27
2019-03-08T20:49:42.562Z,1.83
2019-03-08T20:52:13.383Z,2.63
2019-03-08T20:54:44.153Z,1.50
2019-03-08T20:57:16.991Z,1.47
2019-03-08T20:59:47.918Z,2.03
2019-03-08T21:02:18.616Z,2.53
2019-03-08T21:04:49.815Z,1.70
2019-03-08T21:07:20.671Z,2.13
2019-03-08T21:09:51.546Z,2.43
2019-03-08T21:12:22.242Z,2.10
2019-03-08T21:14:54.246Z,1.90
2019-03-08T21:17:25.034Z,2.33
2019-03-08T21:19:55.808Z,2.13
2019-03-08T21:22:26.441Z,1.73
2019-03-08T21:24:57.299Z,2.00
2019-03-08T21:27:28.455Z,1.70
2019-03-08T21:29:59.650Z,1.67
2019-03-08T21:32:30.293Z,1.47
2019-03-08T21:35:01.198Z,1.43
2019-03-08T21:37:32.468Z,1.23
2019-03-08T21:40:03.717Z,1.60
2019-03-08T21:42:36.875Z,3.57
2019-03-08T21:45:09.078Z,1.83
2019-03-08T21:47:39.918Z,1.97
2019-03-08T21:50:13.325Z,1.43
2019-03-08T21:52:44.246Z,1.43
2019-03-08T21:55:15.503Z,1.43
2019-03-08T21:57:46.334Z,1.47
2019-03-08T22:00:18.744Z,2.27
2019-03-08T22:02:49.610Z,1.50
2019-03-08T22:05:24.122Z,2.00
2019-03-08T22:07:55.103Z,1.67
2019-03-08T22:10:47.865Z,1.33
2019-03-08T22:13:18.666Z,1.33
2019-03-08T22:15:49.911Z,1.30
2019-03-08T22:18:20.670Z,1.17
2019-03-08T22:20:51.550Z,0.90
2019-03-08T22:23:22.342Z,1.13
2019-03-08T22:25:53.105Z,1.17
2019-03-08T22:28:24.090Z,1.70
2019-03-08T22:30:54.855Z,1.37
2019-03-08T22:33:25.549Z,1.10
2019-03-08T22:35:56.621Z,1.30
2019-03-08T22:38:27.253Z,1.00
2019-03-08T22:40:58.210Z,1.17
2019-03-08T22:43:29.130Z,1.70
2019-03-08T22:45:59.810Z,1.10
2019-03-08T22:48:30.746Z,1.23
2019-03-08T22:51:01.619Z,1.27
2019-03-08T22:53:32.276Z,1.20
2019-03-08T22:56:03.279Z,1.00
2019-03-08T22:58:33.942Z,0.80
2019-03-08T23:01:09.962Z,1.03
2019-03-08T23:03:41.147Z,1.40
2019-03-08T23:06:11.845Z,0.70
2019-03-08T23:08:42.710Z,0.77
2019-03-08T23:11:13.530Z,1.20
2019-03-08T23:13:44.617Z,1.10
2019-03-08T23:16:15.430Z,1.10
2019-03-08T23:18:46.379Z,1.23
2019-03-08T23:21:16.966Z,1.90
2019-03-08T23:23:47.645Z,1.27
2019-03-08T23:26:18.534Z,1.43
2019-03-08T23:28:52.880Z,1.10
2019-03-08T23:31:36.605Z,1.03
2019-03-08T23:34:07.253Z,0.90
2019-03-08T23:36:37.857Z,1.60
2019-03-08T23:39:09.623Z,1.23
2019-03-08T23:41:41.878Z,1.30
2019-03-08T23:44:12.954Z,0.93
2019-03-08T23:46:43.661Z,1.63
2019-03-08T23:49:14.443Z,1.00
2019-03-08T23:51:45.428Z,1.80
2019-03-08T23:54:16.487Z,0.90
2019-03-08T23:56:47.164Z,1.07
2019-03-08T23:59:17.877Z,1.00
